createdAt,value
2018-05-14T00:00:03.142Z,9.17
2018-05-14T00:02:30.646Z,10.10
2018-05-14T00:04:58.136Z,9.60
2018-05-14T00:07:25.631Z,10.23
2018-05-14T00:09:53.903Z,9.87
2018-05-14T00:12:21.385Z,9.57
2018-05-14T00:14:49.651Z,11.20
2018-05-14T00:17:17.163Z,9.43
2018-05-14T00:19:44.662Z,11.40
2018-05-14T00:22:12.937Z,9.13
2018-05-14T00:24:41.197Z,9.20
2018-05-14T00:27:08.720Z,9.13
2018-05-14T00:29:36.222Z,9.73
2018-05-14T00:32:03.735Z,10.03
2018-05-14T00:34:31.221Z,9.20
2018-05-14T00:36:58.747Z,10.10
2018-05-14T00:39:26.244Z,9.87
2018-05-14T00:41:53.739Z,10.50
2018-05-14T00:44:21.237Z,9.60
2018-05-14T00:46:48.731Z,11.00
2018-05-14T00:49:16.253Z,12.37
2018-05-14T00:51:43.757Z,10.53
2018-05-14T00:54:12.031Z,9.77
2018-05-14T00:56:39.515Z,10.70
2018-05-14T00:59:07.015Z,9.57
2018-05-14T01:01:34.507Z,9.43
2018-05-14T01:04:02.789Z,9.30
2018-05-14T01:06:31.133Z,11.33
2018-05-14T01:08:58.581Z,10.77
2018-05-14T01:11:26.077Z,9.90
2018-05-14T01:13:54.348Z,10.57
2018-05-14T01:16:22.636Z,13.80
2018-05-14T01:18:50.902Z,10.50
2018-05-14T01:21:19.180Z,11.70
2018-05-14T01:23:47.451Z,11.57
2018-05-14T01:26:15.734Z,11.67
2018-05-14T01:28:44.020Z,11.83
2018-05-14T01:31:11.513Z,12.47
2018-05-14T01:33:39.040Z,12.63
2018-05-14T01:36:06.530Z,10.73
2018-05-14T01:38:34.037Z,10.57
2018-05-14T01:41:02.312Z,13.27
2018-05-14T01:43:30.606Z,11.03
2018-05-14T01:45:58.127Z,12.40
2018-05-14T01:48:25.635Z,11.67
2018-05-14T01:50:53.138Z,11.57
2018-05-14T01:53:20.643Z,11.17
2018-05-14T01:55:48.157Z,12.30
2018-05-14T01:58:15.667Z,14.20
2018-05-14T02:00:43.199Z,14.13
2018-05-14T02:03:11.468Z,12.03
2018-05-14T02:05:39.777Z,12.37
2018-05-14T02:08:07.289Z,13.93
2018-05-14T02:10:34.785Z,12.70
2018-05-14T02:13:02.318Z,12.77
2018-05-14T02:15:29.816Z,14.57
2018-05-14T02:17:57.302Z,14.03
2018-05-14T02:20:24.828Z,11.83
2018-05-14T02:22:52.347Z,17.20
2018-05-14T02:25:19.838Z,16.83
2018-05-14T02:27:47.364Z,19.80
2018-05-14T02:30:14.871Z,17.73
2018-05-14T02:32:42.361Z,19.50
2018-05-14T02:35:09.878Z,16.33
2018-05-14T02:37:37.377Z,17.80
2018-05-14T02:40:04.905Z,16.33
2018-05-14T02:42:32.401Z,18.87
2018-05-14T02:44:59.890Z,19.97
2018-05-14T02:47:28.152Z,22.90
2018-05-14T02:49:56.432Z,25.10
2018-05-14T02:52:23.937Z,22.97
2018-05-14T02:54:51.447Z,21.37
2018-05-14T02:57:19.733Z,18.67
2018-05-14T02:59:48.009Z,23.10
2018-05-14T03:02:16.269Z,19.33
2018-05-14T03:04:43.769Z,20.57
2018-05-14T03:07:11.287Z,22.23
2018-05-14T03:09:39.563Z,20.70
2018-05-14T03:12:07.062Z,19.47
2018-05-14T03:14:34.795Z,18.20
2018-05-14T03:17:03.068Z,16.33
2018-05-14T03:19:31.321Z,18.53
2018-05-14T03:21:58.842Z,21.33
2018-05-14T03:24:26.339Z,21.40
2018-05-14T03:26:53.845Z,19.63
2018-05-14T03:29:21.354Z,27.77
2018-05-14T03:31:48.865Z,17.50
2018-05-14T03:34:16.369Z,23.07
2018-05-14T03:36:43.927Z,24.03
2018-05-14T03:39:11.425Z,20.93
2018-05-14T03:41:39.695Z,23.83
2018-05-14T03:44:08.654Z,74.90
2018-05-14T03:46:36.160Z,49.57
2018-05-14T03:49:03.688Z,20.27
2018-05-14T03:51:31.209Z,24.53
2018-05-14T03:53:58.733Z,20.20
2018-05-14T03:56:26.283Z,24.63
2018-05-14T03:59:06.355Z,23.40
2018-05-14T04:01:45.942Z,20.90
2018-05-14T04:04:25.270Z,23.07
2018-05-14T04:06:52.774Z,22.23
2018-05-14T04:09:21.092Z,22.30
2018-05-14T04:11:48.633Z,23.10
2018-05-14T04:14:16.175Z,20.40
2018-05-14T04:16:43.701Z,19.43
2018-05-14T04:19:11.276Z,18.27
2018-05-14T04:21:39.563Z,18.13
2018-05-14T04:24:08.107Z,15.77
2018-05-14T04:26:35.658Z,18.10
2018-05-14T04:29:03.201Z,18.77
2018-05-14T04:31:30.808Z,30.37
2018-05-14T04:33:59.069Z,21.53
2018-05-14T04:36:26.669Z,25.90
2018-05-14T04:38:54.261Z,21.77
2018-05-14T04:41:21.833Z,22.57
2018-05-14T04:43:49.718Z,19.03
2018-05-14T04:46:17.277Z,17.73
2018-05-14T04:48:44.827Z,16.97
2018-05-14T04:51:12.366Z,16.87
2018-05-14T04:53:39.930Z,16.40
2018-05-14T04:56:07.476Z,16.53
2018-05-14T04:58:35.147Z,34.37
2018-05-14T05:01:02.681Z,27.67
2018-05-14T05:03:30.217Z,54.37
2018-05-14T05:05:58.528Z,20.30
2018-05-14T05:08:26.071Z,18.87
2018-05-14T05:10:53.567Z,26.93
2018-05-14T05:13:21.129Z,19.33
2018-05-14T05:15:48.684Z,19.77
2018-05-14T05:18:18.205Z,19.83
2018-05-14T05:20:46.385Z,21.80
2018-05-14T05:23:14.004Z,20.63
2018-05-14T05:25:41.561Z,28.53
2018-05-14T05:28:09.176Z,24.57
2018-05-14T05:30:36.761Z,25.97
2018-05-14T05:33:04.350Z,25.07
2018-05-14T05:35:31.936Z,30.17
2018-05-14T05:37:59.524Z,26.63
2018-05-14T05:40:27.066Z,16.17
2018-05-14T05:42:54.720Z,18.27
2018-05-14T05:45:24.202Z,21.03
2018-05-14T05:47:51.859Z,22.33
2018-05-14T05:50:19.431Z,75.97
2018-05-14T05:52:47.086Z,20.70
2018-05-14T05:55:14.647Z,20.20
2018-05-14T05:57:42.169Z,20.70
2018-05-14T06:00:09.872Z,21.00
2018-05-14T06:02:37.501Z,24.30
2018-05-14T06:05:05.104Z,19.73
2018-05-14T06:07:32.669Z,21.10
2018-05-14T06:10:00.191Z,26.63
2018-05-14T06:12:27.840Z,27.37
2018-05-14T06:14:55.424Z,25.27
2018-05-14T06:17:23.051Z,22.77
2018-05-14T06:19:51.383Z,24.47
2018-05-14T06:22:18.912Z,22.60
2018-05-14T06:24:47.343Z,24.53
2018-05-14T06:27:14.949Z,26.27
2018-05-14T06:29:42.454Z,46.13
2018-05-14T06:32:13.390Z,30.60
2018-05-14T06:34:41.321Z,23.03
2018-05-14T06:37:12.321Z,23.13
2018-05-14T06:39:40.692Z,24.23
2018-05-14T06:42:08.268Z,21.30
2018-05-14T06:44:40.722Z,23.83
2018-05-14T06:47:08.268Z,24.37
2018-05-14T06:49:35.886Z,23.40
2018-05-14T06:52:03.465Z,23.50
2018-05-14T06:54:30.997Z,26.80
2018-05-14T06:56:58.574Z,79.80
2018-05-14T06:59:27.073Z,29.30
2018-05-14T07:01:54.612Z,29.13
2018-05-14T07:04:22.126Z,26.07
2018-05-14T07:06:50.484Z,21.30
2018-05-14T07:09:18.038Z,21.87
2018-05-14T07:11:45.607Z,20.10
2018-05-14T07:14:13.119Z,21.37
2018-05-14T07:16:40.722Z,21.80
2018-05-14T07:19:08.459Z,39.23
2018-05-14T07:21:35.950Z,35.33
2018-05-14T07:24:03.470Z,33.53
2018-05-14T07:26:30.971Z,19.40
2018-05-14T07:28:58.477Z,18.33
2018-05-14T07:31:25.992Z,20.07
2018-05-14T07:33:54.284Z,21.20
2018-05-14T07:36:22.606Z,20.00
2018-05-14T07:38:50.195Z,18.67
2018-05-14T07:41:17.645Z,20.30
2018-05-14T07:43:45.252Z,19.07
2018-05-14T07:46:12.753Z,16.73
2018-05-14T07:48:40.305Z,17.73
2018-05-14T07:51:07.835Z,19.97
2018-05-14T07:53:35.347Z,22.07
2018-05-14T07:56:03.068Z,17.70
2018-05-14T07:58:30.586Z,18.43
2018-05-14T08:00:58.858Z,15.57
2018-05-14T08:03:27.168Z,17.37
2018-05-14T08:05:54.684Z,18.23
2018-05-14T08:08:22.195Z,16.30
2018-05-14T08:10:49.688Z,15.27
2018-05-14T08:13:17.366Z,17.37
2018-05-14T08:15:44.900Z,17.17
2018-05-14T08:18:12.431Z,17.50
2018-05-14T08:20:40.097Z,16.23
2018-05-14T08:23:07.684Z,17.20
2018-05-14T08:25:35.289Z,13.60
2018-05-14T08:28:02.817Z,15.17
2018-05-14T08:30:30.358Z,15.70
2018-05-14T08:32:57.900Z,15.57
2018-05-14T08:35:25.484Z,16.07
2018-05-14T08:37:53.032Z,16.07
2018-05-14T08:40:20.586Z,16.83
2018-05-14T08:42:48.109Z,14.47
2018-05-14T08:45:15.680Z,13.40
2018-05-14T08:47:43.330Z,15.07
2018-05-14T08:50:10.863Z,15.93
2018-05-14T08:52:39.174Z,14.57
2018-05-14T08:55:06.678Z,16.97
2018-05-14T08:57:34.278Z,18.63
2018-05-14T09:00:01.805Z,17.30
2018-05-14T09:02:29.282Z,16.47
2018-05-14T09:04:57.585Z,17.53
2018-05-14T09:07:25.102Z,15.83
2018-05-14T09:09:53.540Z,15.43
2018-05-14T09:12:21.076Z,15.70
2018-05-14T09:14:48.628Z,14.73
2018-05-14T09:17:16.911Z,12.57
2018-05-14T09:19:44.496Z,14.70
2018-05-14T09:22:12.063Z,11.03
2018-05-14T09:24:39.621Z,13.80
2018-05-14T09:27:07.138Z,14.37
2018-05-14T09:29:35.424Z,15.47
2018-05-14T09:32:02.956Z,14.93
2018-05-14T09:34:31.228Z,22.97
2018-05-14T09:36:58.743Z,27.10
2018-05-14T09:39:26.287Z,14.43
2018-05-14T09:41:53.809Z,13.40
2018-05-14T09:44:22.096Z,14.83
2018-05-14T09:46:50.386Z,14.03
2018-05-14T09:49:17.923Z,16.67
2018-05-14T09:51:46.202Z,14.63
2018-05-14T09:54:14.503Z,18.13
2018-05-14T09:56:42.002Z,12.90
2018-05-14T09:59:09.565Z,14.83
2018-05-14T10:01:37.065Z,15.80
2018-05-14T10:04:04.594Z,14.33
2018-05-14T10:06:32.119Z,13.47
2018-05-14T10:08:59.634Z,12.33
2018-05-14T10:11:27.950Z,14.40
2018-05-14T10:13:55.503Z,13.90
2018-05-14T10:16:23.034Z,17.20
2018-05-14T10:18:51.347Z,14.33
2018-05-14T10:21:18.864Z,14.10
2018-05-14T10:23:47.134Z,14.17
2018-05-14T10:26:15.416Z,13.00
2018-05-14T10:28:43.675Z,13.03
2018-05-14T10:31:11.205Z,12.37
2018-05-14T10:33:38.707Z,11.77
2018-05-14T10:36:06.974Z,13.03
2018-05-14T10:38:35.254Z,12.77
2018-05-14T10:41:03.518Z,11.50
2018-05-14T10:43:31.033Z,10.97
2018-05-14T10:45:58.537Z,10.80
2018-05-14T10:48:27.532Z,10.70
2018-05-14T10:50:55.054Z,12.40
2018-05-14T10:53:22.551Z,11.50
2018-05-14T10:55:50.089Z,11.27
2018-05-14T10:58:17.565Z,9.97
2018-05-14T11:00:45.055Z,11.40
2018-05-14T11:03:12.640Z,11.10
2018-05-14T11:05:40.134Z,10.70
2018-05-14T11:08:07.679Z,11.83
2018-05-14T11:10:35.241Z,12.10
2018-05-14T11:13:02.748Z,12.17
2018-05-14T11:15:30.253Z,13.50
2018-05-14T11:17:57.739Z,10.33
2018-05-14T11:20:26.006Z,12.53
2018-05-14T11:22:54.273Z,16.27
2018-05-14T11:25:21.767Z,10.13
2018-05-14T11:27:50.110Z,10.43
2018-05-14T11:30:17.571Z,11.13
2018-05-14T11:32:45.076Z,9.30
2018-05-14T11:35:12.670Z,13.77
2018-05-14T11:37:40.169Z,9.40
2018-05-14T11:40:08.435Z,12.60
2018-05-14T11:42:36.723Z,10.37
2018-05-14T11:45:04.978Z,9.80
2018-05-14T11:47:33.248Z,10.50
2018-05-14T11:50:00.766Z,12.57
2018-05-14T11:52:28.312Z,11.87
2018-05-14T11:54:55.806Z,10.40
2018-05-14T11:57:23.316Z,9.40
2018-05-14T11:59:50.818Z,9.47
2018-05-14T12:02:18.458Z,9.53
2018-05-14T12:04:45.956Z,9.33
2018-05-14T12:07:14.253Z,13.53
2018-05-14T12:09:41.960Z,11.80
2018-05-14T12:12:10.000Z,12.20
2018-05-14T12:14:37.531Z,11.87
2018-05-14T12:17:05.826Z,11.50
2018-05-14T12:19:34.112Z,9.27
2018-05-14T12:22:02.390Z,10.60
2018-05-14T12:24:30.679Z,11.07
2018-05-14T12:26:58.379Z,9.80
2018-05-14T12:29:25.861Z,10.67
2018-05-14T12:31:53.369Z,10.77
2018-05-14T12:34:20.874Z,13.93
2018-05-14T12:36:49.129Z,11.97
2018-05-14T12:39:16.667Z,11.83
2018-05-14T12:41:44.170Z,12.70
2018-05-14T12:44:12.446Z,14.10
2018-05-14T12:46:40.003Z,10.90
2018-05-14T12:49:07.490Z,11.27
2018-05-14T12:51:35.747Z,11.57
2018-05-14T12:54:03.275Z,11.23
2018-05-14T12:56:30.774Z,11.77
2018-05-14T12:58:59.029Z,11.97
2018-05-14T13:01:26.530Z,12.57
2018-05-14T13:03:55.263Z,11.73
2018-05-14T13:06:22.786Z,12.40
2018-05-14T13:08:50.288Z,12.87
2018-05-14T13:11:19.282Z,16.43
2018-05-14T13:13:46.826Z,11.23
2018-05-14T13:16:14.331Z,12.20
2018-05-14T13:18:42.605Z,15.87
2018-05-14T13:21:10.862Z,17.70
2018-05-14T13:23:39.122Z,14.40
2018-05-14T13:26:06.644Z,14.53
2018-05-14T13:28:34.142Z,12.87
2018-05-14T13:31:01.640Z,15.70
2018-05-14T13:33:29.172Z,15.30
2018-05-14T13:35:57.426Z,15.03
2018-05-14T13:38:24.940Z,14.43
2018-05-14T13:40:52.451Z,13.77
2018-05-14T13:43:19.952Z,15.13
2018-05-14T13:45:47.469Z,19.70
2018-05-14T13:48:15.730Z,16.53
2018-05-14T13:50:43.237Z,16.87
2018-05-14T13:53:11.016Z,18.03
2018-05-14T13:55:38.961Z,18.70
2018-05-14T13:58:07.266Z,19.80
2018-05-14T14:00:34.833Z,18.90
2018-05-14T14:03:02.346Z,19.67
2018-05-14T14:05:30.625Z,20.97
2018-05-14T14:07:58.899Z,20.70
2018-05-14T14:10:27.157Z,19.93
2018-05-14T14:12:55.444Z,18.07
2018-05-14T14:15:22.942Z,18.47
2018-05-14T14:17:50.502Z,30.73
2018-05-14T14:20:18.005Z,21.93
2018-05-14T14:22:45.626Z,20.00
2018-05-14T14:25:13.484Z,21.10
2018-05-14T14:27:42.073Z,22.17
2018-05-14T14:30:10.984Z,23.13
2018-05-14T14:32:39.123Z,24.40
2018-05-14T14:35:06.821Z,23.57
2018-05-14T14:37:36.439Z,30.30
2018-05-14T14:40:04.443Z,51.47
2018-05-14T14:42:34.739Z,26.33
2018-05-14T14:45:02.598Z,13.67
2018-05-14T14:47:31.137Z,18.70
2018-05-14T14:49:58.634Z,33.80
2018-05-14T14:52:26.275Z,41.77
2018-05-14T14:54:53.769Z,74.50
2018-05-14T14:57:22.802Z,52.40
2018-05-14T14:59:50.710Z,67.37
2018-05-14T15:02:18.263Z,83.67
2018-05-14T15:04:47.873Z,109.33
2018-05-14T15:07:15.407Z,102.80
2018-05-14T15:09:43.126Z,59.90
2018-05-14T15:12:10.620Z,94.50
2018-05-14T15:14:39.947Z,85.67
2018-05-14T15:17:08.289Z,64.57
2018-05-14T15:19:37.596Z,66.27
2018-05-14T15:22:06.169Z,95.37
2018-05-14T15:27:11.431Z,86.73
2018-05-14T15:29:46.991Z,65.33
2018-05-14T15:32:15.288Z,85.60
2018-05-14T15:34:49.881Z,53.40
2018-05-14T15:37:17.521Z,62.70
2018-05-14T15:39:45.201Z,75.77
2018-05-14T15:42:17.903Z,76.27
2018-05-14T15:44:45.489Z,60.07
2018-05-14T15:47:19.985Z,80.57
2018-05-14T15:49:48.089Z,83.03
2018-05-14T15:52:15.717Z,73.33
2018-05-14T15:54:43.539Z,56.17
2018-05-14T15:57:13.878Z,59.37
2018-05-14T15:59:59.695Z,53.53
2018-05-14T16:02:45.141Z,62.93
2018-05-14T16:05:14.646Z,59.53
2018-05-14T16:13:30.047Z,40.40
2018-05-14T16:16:08.916Z,36.57
2018-05-14T16:18:38.686Z,39.27
2018-05-14T16:21:18.167Z,42.13
2018-05-14T16:23:46.176Z,44.07
2018-05-14T16:26:14.104Z,39.83
2018-05-14T16:28:42.348Z,44.13
2018-05-14T16:31:10.646Z,41.30
2018-05-14T16:33:38.304Z,37.47
2018-05-14T16:36:06.626Z,36.27
2018-05-14T16:38:34.272Z,32.17
2018-05-14T16:41:01.811Z,28.70
2018-05-14T16:43:40.394Z,33.17
2018-05-14T16:46:07.917Z,29.97
2018-05-14T16:48:45.530Z,20.27
2018-05-14T16:51:13.049Z,28.70
2018-05-14T16:53:40.786Z,21.80
2018-05-14T16:56:09.193Z,27.53
2018-05-14T16:58:36.825Z,64.70
2018-05-14T17:01:05.582Z,28.70
2018-05-14T17:03:34.429Z,25.73
2018-05-14T17:06:02.156Z,18.47
2018-05-14T17:08:31.392Z,12.37
2018-05-14T17:10:58.950Z,16.47
2018-05-14T17:13:27.327Z,15.13
2018-05-14T17:15:57.353Z,15.20
2018-05-14T17:18:25.049Z,16.57
2018-05-14T17:20:52.738Z,15.50
2018-05-14T17:23:20.419Z,13.23
2018-05-14T17:26:35.191Z,12.30
2018-05-14T17:29:02.727Z,17.03
2018-05-14T17:31:31.075Z,14.60
2018-05-14T17:34:00.212Z,14.77
2018-05-14T17:36:28.711Z,15.07
2018-05-14T17:38:56.289Z,15.63
2018-05-14T17:41:23.866Z,15.47
2018-05-14T17:43:51.493Z,15.27
2018-05-14T17:46:19.048Z,12.80
2018-05-14T17:48:53.836Z,13.53
2018-05-14T17:51:21.544Z,15.10
2018-05-14T17:53:49.288Z,16.37
2018-05-14T17:56:19.487Z,15.07
2018-05-14T17:58:47.016Z,15.50
2018-05-14T18:01:14.605Z,26.77
2018-05-14T18:03:43.404Z,30.73
2018-05-14T18:06:13.865Z,18.20
2018-05-14T18:08:41.429Z,15.63
2018-05-14T18:11:08.975Z,15.00
2018-05-14T18:13:37.363Z,16.93
2018-05-14T18:16:05.041Z,13.90
2018-05-14T18:18:32.696Z,16.23
2018-05-14T18:21:00.345Z,16.27
2018-05-14T18:23:27.974Z,17.70
2018-05-14T18:26:02.226Z,22.93
2018-05-14T18:28:35.473Z,16.83
2018-05-14T18:31:03.034Z,18.23
2018-05-14T18:33:31.496Z,21.53
2018-05-14T18:35:59.054Z,18.60
2018-05-14T18:38:26.781Z,17.43
2018-05-14T18:40:54.294Z,17.73
2018-05-14T18:43:21.997Z,14.50
2018-05-14T18:45:49.515Z,15.93
2018-05-14T18:48:17.009Z,15.30
2018-05-14T18:50:44.539Z,14.07
2018-05-14T18:53:12.055Z,16.90
2018-05-14T18:55:39.633Z,14.90
2018-05-14T18:58:07.132Z,16.77
2018-05-14T19:00:35.443Z,12.43
2018-05-14T19:03:02.963Z,14.67
2018-05-14T19:05:31.226Z,12.87
2018-05-14T19:07:58.727Z,13.67
2018-05-14T19:10:31.987Z,13.70
2018-05-14T19:13:00.406Z,19.63
2018-05-14T19:18:33.633Z,14.40
2018-05-14T19:21:01.078Z,104.20
2018-05-14T19:23:34.214Z,40.73
2018-05-14T19:26:01.747Z,23.27
2018-05-14T19:28:35.505Z,16.50
2018-05-14T19:31:03.025Z,19.40
2018-05-14T19:33:36.231Z,16.20
2018-05-14T19:36:04.670Z,17.03
2018-05-14T19:38:32.114Z,14.83
2018-05-14T19:40:59.617Z,14.60
2018-05-14T19:43:27.918Z,12.83
2018-05-14T19:45:56.198Z,15.60
2018-05-14T19:48:23.707Z,13.63
2018-05-14T19:50:51.316Z,17.00
2018-05-14T19:53:19.572Z,15.80
2018-05-14T19:55:47.087Z,18.63
2018-05-14T19:58:14.630Z,17.07
2018-05-14T20:00:42.134Z,16.17
2018-05-14T20:03:09.630Z,15.83
2018-05-14T20:05:37.148Z,16.80
2018-05-14T20:08:05.079Z,13.47
2018-05-14T20:10:33.046Z,16.80
2018-05-14T20:13:01.648Z,15.60
2018-05-14T20:15:30.518Z,13.43
2018-05-14T20:17:58.200Z,13.53
2018-05-14T20:20:26.064Z,12.33
2018-05-14T20:22:54.323Z,14.03
2018-05-14T20:25:23.115Z,18.17
2018-05-14T20:27:50.878Z,19.73
2018-05-14T20:30:18.528Z,25.70
2018-05-14T20:32:46.424Z,158.77
2018-05-14T20:35:14.269Z,46.87
2018-05-14T20:37:42.138Z,15.93
2018-05-14T20:40:09.757Z,15.20
2018-05-14T20:42:38.381Z,14.70
2018-05-14T20:45:07.027Z,19.53
2018-05-14T20:47:34.733Z,19.40
2018-05-14T20:50:02.599Z,15.40
2018-05-14T20:52:30.567Z,15.43
2018-05-14T20:54:58.354Z,14.30
2018-05-14T20:57:26.196Z,18.03
2018-05-14T20:59:54.064Z,20.83
2018-05-14T21:02:21.889Z,12.50
2018-05-14T21:04:50.513Z,10.30
2018-05-14T21:07:18.090Z,12.17
2018-05-14T21:09:45.615Z,9.33
2018-05-14T21:12:13.144Z,10.07
2018-05-14T21:14:40.756Z,9.43
2018-05-14T21:17:08.215Z,9.13
2018-05-14T21:19:35.765Z,9.37
2018-05-14T21:22:03.248Z,8.30
2018-05-14T21:24:30.748Z,8.80
2018-05-14T21:26:59.039Z,7.90
2018-05-14T21:29:26.545Z,7.63
2018-05-14T21:31:54.035Z,7.50
2018-05-14T21:34:22.317Z,7.40
2018-05-14T21:36:50.600Z,10.37
2018-05-14T21:39:18.879Z,8.90
2018-05-14T21:41:47.177Z,10.80
2018-05-14T21:44:14.683Z,7.87
2018-05-14T21:46:42.236Z,10.10
2018-05-14T21:49:10.523Z,8.90
2018-05-14T21:51:38.055Z,9.03
2018-05-14T21:54:05.572Z,8.63
2018-05-14T21:56:33.088Z,9.93
2018-05-14T21:59:00.588Z,9.00
2018-05-14T22:01:28.076Z,8.77
2018-05-14T22:03:55.590Z,8.90
2018-05-14T22:06:23.917Z,8.57
2018-05-14T22:08:51.439Z,8.60
2018-05-14T22:11:18.933Z,9.27
2018-05-14T22:13:46.458Z,10.93
2018-05-14T22:16:13.949Z,9.23
2018-05-14T22:18:41.453Z,9.10
2018-05-14T22:21:09.736Z,10.30
2018-05-14T22:23:38.005Z,9.70
2018-05-14T22:26:05.538Z,12.53
2018-05-14T22:28:33.059Z,11.83
2018-05-14T22:31:00.583Z,9.80
2018-05-14T22:33:28.848Z,10.77
2018-05-14T22:35:56.347Z,11.83
2018-05-14T22:38:23.885Z,11.33
2018-05-14T22:40:52.146Z,9.10
2018-05-14T22:43:19.709Z,8.47
2018-05-14T22:45:48.070Z,11.10
2018-05-14T22:48:15.577Z,9.53
2018-05-14T22:50:43.138Z,12.80
2018-05-14T22:53:10.665Z,12.00
2018-05-14T22:55:38.929Z,8.43
2018-05-14T22:58:06.443Z,12.00
2018-05-14T23:00:33.942Z,10.70
2018-05-14T23:03:01.482Z,9.37
2018-05-14T23:05:29.045Z,9.23
2018-05-14T23:07:56.569Z,11.97
2018-05-14T23:10:24.151Z,10.53
2018-05-14T23:12:51.709Z,12.63
2018-05-14T23:15:21.032Z,10.07
2018-05-14T23:17:48.731Z,11.37
2018-05-14T23:20:16.986Z,13.63
2018-05-14T23:22:44.511Z,15.00
2018-05-14T23:25:12.041Z,13.83
2018-05-14T23:27:39.516Z,9.93
2018-05-14T23:30:07.101Z,12.17
2018-05-14T23:32:34.826Z,14.63
2018-05-14T23:35:02.385Z,13.23
2018-05-14T23:37:30.000Z,12.97
2018-05-14T23:39:57.525Z,13.13
2018-05-14T23:42:25.531Z,15.87
2018-05-14T23:44:53.170Z,14.47
2018-05-14T23:47:20.717Z,12.07
2018-05-14T23:49:48.288Z,12.67
2018-05-14T23:52:15.850Z,13.07
2018-05-14T23:54:43.482Z,11.70
2018-05-14T23:57:11.091Z,12.37
2018-05-14T23:59:38.586Z,11.90
